Time;durP1;ratioP1;P1;durP2;ratioP2;P2;SDS_P1;SDS_P2;PMS_P1;PMS_P2;Temp;Humidity;BMP_temperature;BMP_pressure;BME280_temperature;BME280_humidity;BME280_pressure;Samples;Min_cycle;Max_cycle;Signal;HPM_P1;HPM_P2
2022/07/01 11:17:15;;;;;;;6.97;1.30;;;21.90;90.90;;;;;;6156367;23;20083;-80
2022/07/01 11:20:05;;;;;;;5.55;1.48;;;21.40;90.30;;;;;;6154235;23;20013;-76
2022/07/01 13:36:50;;;;;;;8.75;1.75;;;23.00;81.70;;;;;;6095645;23;20113;-82
2022/07/01 13:39:16;;;;;;;5.40;1.33;;;22.80;79.80;;;;;;6095814;23;20033;-73
2022/07/01 13:48:53;;;;;;;4.68;1.42;;;23.20;80.20;;;;;;5973220;23;20044;-72
2022/07/01 13:51:18;;;;;;;;;;;23.60;81.20;;;;;;6100021;23;20010;-77
2022/07/01 13:53:50;;;;;;;5.45;0.90;;;23.70;77.40;;;;;;6153092;23;19912;-72
2022/07/01 13:56:15;;;;;;;4.97;1.00;;;23.70;79.30;;;;;;6235009;22;20007;-77
2022/07/01 13:58:44;;;;;;;4.95;1.00;;;23.30;78.10;;;;;;6281852;22;20012;-77
2022/07/01 14:01:10;;;;;;;6.80;0.82;;;23.30;77.60;;;;;;6281712;22;20539;-76
2022/07/01 14:03:36;;;;;;;8.45;0.93;;;23.40;78.10;;;;;;6280916;22;20039;-75
2022/07/01 14:06:02;;;;;;;5.57;1.00;;;23.30;78.00;;;;;;6307870;22;20144;-76
2022/07/01 14:08:27;;;;;;;5.22;0.93;;;23.40;77.40;;;;;;6281199;22;20496;-77
2022/07/01 14:10:54;;;;;;;14.73;1.48;;;23.20;76.10;;;;;;6281120;22;20094;-77
2022/07/01 14:13:25;;;;;;;18.92;1.85;;;23.30;76.10;;;;;;6255685;22;20117;-76
2022/07/01 14:15:51;;;;;;;6.63;1.17;;;23.20;77.20;;;;;;6281670;22;20057;-76
2022/07/01 14:18:17;;;;;;;13.27;1.30;;;23.30;78.40;;;;;;6280721;22;20015;-76
2022/07/01 14:20:43;;;;;;;8.02;1.40;;;23.60;78.10;;;;;;6280946;22;20007;-77
2022/07/01 14:23:11;;;;;;;8.95;0.88;;;23.70;76.90;;;;;;6280468;22;20003;-76
2022/07/01 14:25:40;;;;;;;5.88;1.15;;;23.80;76.70;;;;;;6255718;22;20013;-81
2022/07/01 14:28:24;;;;;;;5.55;0.93;;;23.50;76.00;;;;;;6307084;22;20008;-74
2022/07/01 14:30:49;;;;;;;6.40;0.77;;;23.10;74.80;;;;;;6277562;22;20010;-73
2022/07/01 14:33:16;;;;;;;6.43;1.65;;;23.10;75.90;;;;;;6278805;22;20016;-73
2022/07/01 14:35:43;;;;;;;4.90;1.00;;;22.90;78.40;;;;;;6279689;22;20011;-73
2022/07/01 14:38:40;;;;;;;4.65;1.08;;;23.20;79.60;;;;;;6279608;22;20011;-83
2022/07/01 14:41:56;;;;;;;6.68;1.02;;;23.50;75.90;;;;;;6253461;22;20014;-82
2022/07/01 14:44:22;;;;;;;4.18;0.77;;;23.40;75.00;;;;;;6279638;22;20057;-74
2022/07/01 14:46:47;;;;;;;5.30;0.95;;;23.60;76.30;;;;;;6305285;22;20007;-76
2022/07/01 14:49:17;;;;;;;4.35;0.77;;;23.70;76.00;;;;;;6305153;22;20361;-75
2022/07/01 14:59:07;;;;;;;7.80;0.80;;;23.30;77.90;;;;;;6306444;22;20064;-72
2022/07/01 15:01:35;;;;;;;5.82;0.82;;;23.60;76.50;;;;;;6304521;22;20422;-74
2022/07/01 15:04:01;;;;;;;6.45;0.63;;;24.00;75.20;;;;;;6278539;22;20464;-72
2022/07/01 15:06:27;;;;;;;3.97;0.70;;;24.30;71.90;;;;;;6279779;22;20012;-72
2022/07/01 15:08:53;;;;;;;4.93;0.85;;;24.60;71.70;;;;;;6279659;22;20422;-71
2022/07/01 15:11:18;;;;;;;4.63;1.02;;;24.50;68.50;;;;;;6304834;22;20012;-71
2022/07/01 15:14:13;;;;;;;4.70;0.80;;;24.20;69.10;;;;;;6253136;22;20460;-75
2022/07/01 15:24:24;;;;;;;3.38;0.70;;;23.60;72.20;;;;;;6105549;23;21018;-82
2022/07/01 15:26:53;;;;;;;6.28;0.80;;;23.30;73.20;;;;;;6144450;22;20332;-75
2022/07/01 15:29:19;;;;;;;9.13;0.85;;;23.70;74.60;;;;;;6279484;22;20034;-75
2022/07/01 15:31:44;;;;;;;6.13;0.70;;;24.10;73.90;;;;;;6252928;22;20286;-73
2022/07/01 15:34:26;;;;;;;5.32;1.25;;;24.10;73.30;;;;;;6227356;22;20017;-82
2022/07/01 15:36:55;;;;;;;3.42;0.70;;;24.60;71.80;;;;;;6254016;22;20007;-73
2022/07/01 15:39:34;;;;;;;2.90;0.60;;;24.80;71.60;;;;;;6252967;22;20438;-75
2022/07/01 15:42:12;;;;;;;3.92;0.80;;;24.90;69.60;;;;;;6252322;22;20053;-73
2022/07/01 15:48:27;;;;;;;7.07;0.90;;;24.40;69.30;;;;;;6192330;22;20059;-76
2022/07/01 15:51:18;;;;;;;4.38;0.80;;;24.40;71.40;;;;;;6279539;22;20007;-80
2022/07/01 15:54:11;;;;;;;5.35;0.98;;;24.60;70.70;;;;;;6191128;23;20015;-79
2022/07/01 15:56:53;;;;;;;3.65;0.70;;;24.20;71.10;;;;;;6221468;23;20008;-74
2022/07/01 15:59:21;;;;;;;4.30;0.70;;;23.60;72.30;;;;;;6192861;23;20386;-74
2022/07/01 16:01:54;;;;;;;2.92;0.75;;;22.90;74.80;;;;;;6191917;23;20015;-75
2022/07/01 16:04:45;;;;;;;4.60;1.10;;;22.60;76.50;;;;;;6189297;23;20028;-75
2022/07/01 16:07:25;;;;;;;42.88;4.70;;;23.00;79.00;;;;;;6195408;23;20504;-74
2022/07/01 16:10:17;;;;;;;6.82;0.98;;;23.70;76.40;;;;;;6217069;23;20008;-72
2022/07/01 16:12:48;;;;;;;9.07;0.80;;;23.50;74.40;;;;;;6201541;23;20076;-77
2022/07/01 16:15:15;;;;;;;5.63;0.88;;;23.60;75.50;;;;;;6217298;23;20008;-74
2022/07/01 16:17:52;;;;;;;5.68;1.00;;;23.60;74.50;;;;;;6221899;22;20003;-76
2022/07/01 16:20:19;;;;;;;5.05;1.00;;;23.70;74.70;;;;;;6305740;22;20065;-74
2022/07/01 16:22:50;;;;;;;4.88;0.90;;;24.20;73.50;;;;;;6279825;22;20456;-74
2022/07/01 16:25:37;;;;;;;4.13;1.00;;;24.50;73.80;;;;;;6280197;22;20442;-72
2022/07/01 16:28:05;;;;;;;5.70;1.15;;;24.90;71.60;;;;;;6307091;22;20007;-72
2022/07/01 16:30:32;;;;;;;4.50;0.80;;;25.50;71.80;;;;;;6280653;22;20004;-78
2022/07/01 16:33:28;;;;;;;4.40;0.73;;;25.40;69.40;;;;;;6279757;22;20070;-79
2022/07/01 16:36:59;;;;;;;9.02;1.10;;;26.10;69.00;;;;;;6305778;22;20003;-76
2022/07/01 16:39:36;;;;;;;5.00;0.52;;;26.30;66.60;;;;;;6222309;22;20015;-75
2022/07/01 16:42:41;;;;;;;4.18;0.93;;;26.40;66.80;;;;;;6259678;22;20010;-75
2022/07/01 16:45:10;;;;;;;6.55;0.95;;;26.30;65.40;;;;;;6265650;22;20011;-75
2022/07/01 16:47:47;;;;;;;4.47;0.95;;;26.20;65.50;;;;;;6308640;22;20331;-74
2022/07/01 16:50:25;;;;;;;2.85;0.60;;;25.90;66.60;;;;;;6307428;22;20321;-78
2022/07/01 16:53:00;;;;;;;6.18;0.75;;;25.80;67.40;;;;;;6281893;22;20011;-75
2022/07/01 16:56:17;;;;;;;4.43;0.77;;;26.00;66.40;;;;;;6307537;22;20352;-74
2022/07/01 17:02:21;;;;;;;6.45;1.25;;;24.80;66.90;;;;;;6302237;22;20007;-74
2022/07/01 17:05:30;;;;;;;5.65;0.90;;;24.00;69.70;;;;;;6307382;22;20325;-76
2022/07/01 17:08:20;;;;;;;;;;;;;;;;;;;;;
2022/07/01 17:14:48;;;;;;;5.38;0.77;;;23.30;73.30;;;;;;6308755;22;20372;-76
2022/07/01 17:18:12;;;;;;;4.50;0.70;;;22.60;74.50;;;;;;6307377;22;20086;-76
2022/07/01 17:21:31;;;;;;;5.50;0.90;;;22.10;76.80;;;;;;6133941;23;20471;-73
2022/07/01 17:24:09;;;;;;;4.90;0.90;;;21.70;77.70;;;;;;6281006;22;20141;-74
2022/07/01 17:27:25;;;;;;;;;;;;;;;;;;;;;
2022/07/01 17:30:18;;;;;;;7.05;0.98;;;20.90;79.60;;;;;;6287807;22;20007;-74
2022/07/01 17:32:54;;;;;;;4.25;1.10;;;20.70;80.00;;;;;;6257592;22;20014;-74
2022/07/01 17:35:24;;;;;;;4.28;0.80;;;20.60;80.00;;;;;;6306233;22;20007;-73
2022/07/01 17:38:01;;;;;;;5.53;1.10;;;20.50;80.70;;;;;;6307519;22;20426;-74
2022/07/01 17:40:43;;;;;;;2.75;0.70;;;20.40;82.60;;;;;;6283443;22;20054;-74
2022/07/01 17:43:24;;;;;;;7.03;0.88;;;20.40;82.70;;;;;;6280557;22;20053;-73
2022/07/01 17:46:14;;;;;;;8.68;1.25;;;20.30;82.20;;;;;;6291752;22;20050;-73
2022/07/01 17:48:51;;;;;;;2.58;0.85;;;20.20;83.00;;;;;;6256055;22;20007;-73
2022/07/01 17:51:32;;;;;;;8.02;1.95;;;20.10;83.50;;;;;;6305106;22;20018;-73
2022/07/01 17:54:22;;;;;;;4.50;1.00;;;20.00;84.30;;;;;;6307150;22;20043;-73
2022/07/01 18:01:10;;;;;;;8.30;1.25;;;19.80;86.50;;;;;;6181071;23;20142;-73
2022/07/01 18:04:21;;;;;;;;;;;;;;;;;;;;;
2022/07/01 18:11:57;;;;;;;;;;;;;;;;;;;;;
2022/07/01 18:18:16;;;;;;;3.20;0.90;;;19.30;86.70;;;;;;6098741;23;20025;-74
2022/07/01 18:21:51;;;;;;;5.60;1.55;;;19.20;87.30;;;;;;6123561;23;20109;-76
2022/07/01 18:24:39;;;;;;;3.72;0.85;;;19.10;89.50;;;;;;6048865;23;20550;-74
2022/07/01 18:27:33;;;;;;;4.53;1.00;;;19.10;89.70;;;;;;6123986;23;20178;-72
2022/07/01 18:33:54;;;;;;;6.60;1.42;;;18.90;90.60;;;;;;6280138;22;20014;-74
2022/07/01 18:40:02;;;;;;;5.80;1.60;;;18.80;91.30;;;;;;6306809;22;20110;-71
2022/07/01 18:42:27;;;;;;;;;;;18.70;91.00;;;;;;6255135;22;20065;-70
2022/07/01 18:44:53;;;;;;;8.65;1.90;;;18.60;91.90;;;;;;6254697;22;19906;-70
2022/07/01 18:47:19;;;;;;;6.65;2.22;;;18.40;91.40;;;;;;6280546;22;20018;-69
2022/07/01 18:49:44;;;;;;;7.38;2.22;;;18.40;91.40;;;;;;6254005;22;20367;-70
2022/07/01 18:52:10;;;;;;;6.00;1.50;;;18.30;91.50;;;;;;6254799;22;20015;-68
2022/07/01 18:54:36;;;;;;;4.97;1.80;;;18.30;91.60;;;;;;6280170;22;20007;-69
2022/07/01 18:57:01;;;;;;;5.90;1.73;;;18.20;91.90;;;;;;6280194;22;20015;-68
2022/07/01 18:59:27;;;;;;;4.68;1.50;;;18.10;92.10;;;;;;6279825;22;20325;-67
2022/07/01 19:01:53;;;;;;;7.60;1.63;;;18.10;92.00;;;;;;6307422;22;20019;-67
2022/07/01 19:04:19;;;;;;;11.02;1.75;;;18.00;92.50;;;;;;6307696;22;20015;-71
2022/07/01 19:06:44;;;;;;;11.45;2.22;;;17.90;92.50;;;;;;6279709;22;20053;-71
2022/07/01 19:09:10;;;;;;;16.15;1.83;;;17.90;92.50;;;;;;6279261;22;20057;-70
2022/07/01 19:11:36;;;;;;;8.35;1.90;;;17.80;92.70;;;;;;6307785;22;20015;-70
2022/07/01 19:14:02;;;;;;;4.43;1.88;;;17.70;93.00;;;;;;6280264;22;20015;-73
2022/07/01 19:16:30;;;;;;;6.95;1.73;;;17.70;93.30;;;;;;6280369;22;20018;-73
2022/07/01 19:18:56;;;;;;;5.53;1.60;;;17.60;93.20;;;;;;6254258;22;20007;-73
2022/07/01 19:21:22;;;;;;;8.25;1.60;;;17.60;93.50;;;;;;6254321;22;20299;-74
2022/07/01 19:23:47;;;;;;;6.32;1.67;;;17.50;93.50;;;;;;6280158;22;20321;-73
2022/07/01 19:26:13;;;;;;;7.32;2.20;;;17.40;93.60;;;;;;6254403;22;20039;-72
2022/07/01 19:28:39;;;;;;;5.22;1.95;;;17.30;93.60;;;;;;6279520;22;20007;-73
2022/07/01 19:31:05;;;;;;;7.90;2.00;;;17.30;94.00;;;;;;6254809;22;20079;-72
2022/07/01 19:33:30;;;;;;;7.82;2.28;;;17.20;94.60;;;;;;6281493;22;20003;-71
2022/07/01 19:35:56;;;;;;;5.72;2.75;;;17.10;94.20;;;;;;6287942;22;20565;-72
2022/07/01 19:38:22;;;;;;;8.35;2.00;;;17.10;94.40;;;;;;6259459;22;20444;-72
2022/07/01 19:40:47;;;;;;;7.15;2.13;;;17.00;94.40;;;;;;6254489;22;20023;-71
2022/07/01 19:43:13;;;;;;;7.43;2.50;;;17.00;94.80;;;;;;6279763;22;20011;-72
2022/07/01 19:45:39;;;;;;;8.35;2.08;;;16.90;94.80;;;;;;6280148;22;20007;-73
2022/07/01 19:48:05;;;;;;;4.65;2.20;;;16.80;95.20;;;;;;6279929;22;20050;-72
2022/07/01 19:50:32;;;;;;;5.70;2.10;;;16.80;95.70;;;;;;6279721;22;20011;-72
2022/07/01 19:52:58;;;;;;;13.13;2.83;;;16.70;95.60;;;;;;6253826;22;20082;-73
2022/07/01 19:55:24;;;;;;;8.70;2.47;;;16.60;96.10;;;;;;6279881;22;20112;-75
2022/07/01 19:57:49;;;;;;;5.55;2.30;;;16.50;96.10;;;;;;6279830;22;20077;-71
2022/07/01 20:00:16;;;;;;;7.03;2.20;;;16.50;96.20;;;;;;6279840;22;20012;-70
2022/07/01 20:02:42;;;;;;;6.78;2.10;;;16.40;96.70;;;;;;6253540;22;20022;-66
2022/07/01 20:05:08;;;;;;;6.82;2.47;;;16.30;96.80;;;;;;6280625;22;20320;-68
2022/07/01 20:07:35;;;;;;;6.40;2.53;;;16.30;96.60;;;;;;6278261;22;20073;-70
2022/07/01 20:10:01;;;;;;;8.48;3.05;;;16.20;97.20;;;;;;6254203;22;20019;-69
2022/07/01 20:12:27;;;;;;;7.07;2.95;;;16.10;97.40;;;;;;6281450;22;20490;-69
2022/07/01 20:14:52;;;;;;;7.63;2.38;;;16.10;97.60;;;;;;6283950;22;20059;-69
2022/07/01 20:17:18;;;;;;;6.40;2.55;;;16.10;97.70;;;;;;6255390;22;20432;-68
2022/07/01 20:19:49;;;;;;;8.88;2.65;;;16.00;98.10;;;;;;6254159;22;20400;-68
2022/07/01 20:22:16;;;;;;;7.22;2.42;;;16.00;98.10;;;;;;6281632;22;20003;-68
2022/07/01 20:24:42;;;;;;;8.82;3.42;;;15.90;98.00;;;;;;6255748;22;20433;-69
2022/07/01 20:27:17;;;;;;;6.90;2.25;;;15.90;98.40;;;;;;6280991;22;20042;-71
2022/07/01 20:30:38;;;;;;;6.72;2.42;;;15.80;98.50;;;;;;6256736;22;20051;-71
2022/07/01 20:32:47;;;;;;;8.25;2.60;;;15.80;98.90;;;;;;6268037;22;20429;-70
2022/07/01 20:35:39;;;;;;;4.55;2.20;;;15.70;98.40;;;;;;6256206;22;20018;-69
2022/07/01 20:38:34;;;;;;;8.13;3.17;;;15.70;99.60;;;;;;6281421;22;20053;-69
2022/07/01 20:41:11;;;;;;;7.28;2.60;;;15.60;99.30;;;;;;6281304;22;20007;-69
2022/07/01 20:43:42;;;;;;;8.27;2.58;;;15.60;98.60;;;;;;6256087;22;20007;-70
2022/07/01 20:46:14;;;;;;;6.93;2.58;;;15.60;99.10;;;;;;6256391;22;20426;-68
2022/07/01 20:48:48;;;;;;;8.13;3.15;;;15.50;98.80;;;;;;6257571;22;20021;-69
2022/07/01 20:51:22;;;;;;;5.28;2.70;;;15.50;98.90;;;;;;6280410;22;20379;-69
2022/07/01 20:53:55;;;;;;;6.63;2.72;;;15.40;99.30;;;;;;6255209;22;20007;-69
2022/07/01 21:08:45;;;;;;;8.02;2.70;;;15.20;99.90;;;;;;6179280;23;20367;-70
2022/07/01 21:12:08;;;;;;;;;;;;;;;;;;;;;
2022/07/01 21:15:37;;;;;;;7.22;3.03;;;15.00;99.90;;;;;;6213362;23;20023;-71
2022/07/01 21:32:42;;;;;;;7.00;3.47;;;14.80;99.90;;;;;;6008193;23;20027;-70
2022/07/01 21:39:25;;;;;;;9.85;3.72;;;14.70;99.90;;;;;;6053502;23;19919;-73
2022/07/01 21:41:51;;;;;;;8.40;3.63;;;14.70;99.90;;;;;;6098525;23;20107;-68
2022/07/01 21:44:19;;;;;;;12.43;3.30;;;14.70;99.90;;;;;;6264466;22;20019;-69
2022/07/01 21:46:46;;;;;;;18.75;4.57;;;14.60;99.90;;;;;;6257581;22;20007;-69
2022/07/01 21:49:15;;;;;;;10.52;4.25;;;14.60;99.90;;;;;;6282173;22;20344;-70
2022/07/01 21:51:47;;;;;;;9.88;4.07;;;14.50;99.90;;;;;;6308782;22;20011;-70
2022/07/01 21:54:26;;;;;;;14.80;4.50;;;14.50;99.90;;;;;;6255301;22;20017;-70
2022/07/01 21:57:13;;;;;;;10.15;5.10;;;14.40;99.90;;;;;;6281006;22;20318;-70
2022/07/01 22:00:51;;;;;;;;;;;;;;;;;;;;;
2022/07/01 22:11:52;;;;;;;17.98;4.95;;;14.20;99.90;;;;;;6036738;23;20028;-72
2022/07/01 22:14:22;;;;;;;10.75;4.50;;;14.00;99.90;;;;;;6073836;23;20017;-72
2022/07/01 22:24:37;;;;;;;9.35;3.70;;;14.00;99.90;;;;;;6239445;22;20321;-73
2022/07/01 22:27:39;;;;;;;12.90;4.57;;;13.90;99.90;;;;;;6234404;22;20372;-73
2022/07/01 22:30:41;;;;;;;;;;;;;;;;;;;;;
2022/07/01 22:37:56;;;;;;;10.68;3.25;;;13.90;99.90;;;;;;6255590;22;20333;-73
2022/07/01 22:49:00;;;;;;;13.23;3.15;;;13.80;99.90;;;;;;6153621;23;20454;-73
2022/07/01 22:52:46;;;;;;;12.13;3.35;;;13.90;99.90;;;;;;6162811;23;20428;-73
2022/07/01 22:59:45;;;;;;;10.43;3.10;;;13.90;99.90;;;;;;6139156;23;20020;-72
2022/07/01 23:18:01;;;;;;;;;;;13.90;99.90;;;;;;6214547;23;20529;-74
2022/07/01 23:20:58;;;;;;;10.32;4.18;;;13.80;99.90;;;;;;6162439;23;19935;-73
2022/07/01 23:25:06;;;;;;;14.35;4.18;;;13.70;99.90;;;;;;6113206;23;20063;-74
2022/07/01 23:28:50;;;;;;;14.75;4.38;;;13.70;99.90;;;;;;6096496;23;20013;-73
2022/07/01 23:32:07;;;;;;;;;;;;;;;;;;;;;
2022/07/01 23:38:49;;;;;;;;;;;;;;;;;;;;;
2022/07/01 23:52:25;;;;;;;15.00;4.45;;;13.60;99.90;;;;;;5939656;24;20027;-74
2022/07/01 23:59:07;;;;;;;9.93;4.07;;;13.60;99.90;;;;;;5922461;23;20058;-74
